createdAt,value
2019-05-13T10:51:28.457Z,101947.91
2019-05-13T10:52:03.878Z,101949.08
2019-05-13T10:55:46.188Z,101948.71
2019-05-13T10:58:53.325Z,101948.71
2019-05-13T11:02:02.121Z,101952.39
2019-05-13T11:05:06.643Z,101950.02
2019-05-13T11:08:12.025Z,101950.02
2019-05-13T11:11:17.418Z,101945.62
2019-05-13T11:14:22.662Z,101945.62
2019-05-13T11:17:43.606Z,101940.05
2019-05-13T11:20:36.853Z,101940.80
2019-05-13T11:23:42.210Z,101945.15
2019-05-13T11:26:47.889Z,101912.69
2019-05-13T11:29:53.257Z,101936.44
2019-05-13T11:32:58.480Z,101936.44
2019-05-13T11:36:04.309Z,101940.05
2019-05-13T11:39:12.895Z,101940.05
2019-05-13T11:42:17.450Z,101918.29
2019-05-13T11:45:23.268Z,101925.61
2019-05-13T11:48:28.707Z,101919.98
2019-05-13T11:51:34.008Z,101923.42
2019-05-13T11:54:42.294Z,101923.42
2019-05-13T11:57:46.952Z,101909.23
2019-05-13T12:00:55.699Z,101914.31
2019-05-13T12:04:02.732Z,101905.48
2019-05-13T12:07:08.383Z,101912.79
2019-05-13T12:10:13.929Z,101908.35
2019-05-13T12:13:19.281Z,101902.45
2019-05-13T12:16:24.592Z,101894.19
2019-05-13T12:19:29.880Z,101883.93
2019-05-13T12:22:35.110Z,101899.55
2019-05-13T12:25:43.739Z,101899.55
2019-05-13T12:28:48.236Z,101895.58
2019-05-13T12:31:53.559Z,101895.58
2019-05-13T12:34:58.842Z,101886.44
2019-05-13T12:38:04.157Z,101886.28
2019-05-13T12:41:12.871Z,101884.17
2019-05-13T12:44:17.075Z,101884.17
2019-05-13T12:47:22.829Z,101885.14
2019-05-13T12:50:32.314Z,101881.79
2019-05-13T12:53:37.018Z,101887.99
2019-05-13T12:56:42.752Z,101887.99
2019-05-13T12:59:48.558Z,101881.19
2019-05-13T13:02:53.938Z,101880.42
2019-05-13T13:06:22.694Z,101881.23
2019-05-13T13:09:07.013Z,101876.31
2019-05-13T13:12:12.292Z,101876.31
2019-05-13T13:15:36.817Z,101870.48
2019-05-13T13:18:25.099Z,101870.78
2019-05-13T13:21:34.424Z,101866.32
2019-05-13T13:24:37.740Z,101843.25
2019-05-13T13:30:52.808Z,101854.05
2019-05-13T13:34:08.195Z,101854.05
2019-05-13T13:37:05.374Z,101849.70
2019-05-13T13:40:12.485Z,101849.70
2019-05-13T13:43:18.222Z,101843.92
2019-05-13T13:46:36.302Z,101836.80
2019-05-13T13:49:34.880Z,101832.30
2019-05-13T13:52:38.015Z,101843.74
2019-05-13T13:55:44.646Z,101843.74
2019-05-13T13:58:50.379Z,101837.78
2019-05-13T14:01:55.859Z,101835.41
2019-05-13T14:05:05.592Z,101845.46
2019-05-13T14:08:12.596Z,101833.49
2019-05-13T14:11:17.940Z,101833.49
2019-05-13T14:14:23.876Z,101832.52
2019-05-13T14:17:31.207Z,101818.20
2019-05-13T14:20:36.255Z,101810.28
2019-05-13T14:23:42.582Z,101817.55
2019-05-13T14:26:48.112Z,101808.27
2019-05-13T14:29:53.733Z,101808.27
2019-05-13T14:32:59.267Z,101808.90
2019-05-13T14:36:04.666Z,101808.90
2019-05-13T14:39:12.052Z,101799.70
2019-05-13T14:42:19.175Z,101790.84
2019-05-13T14:45:24.476Z,101794.65
2019-05-13T14:48:32.539Z,101784.62
2019-05-13T14:51:37.391Z,101788.67
2019-05-13T14:54:42.676Z,101788.67
2019-05-13T14:57:48.414Z,101787.88
2019-05-13T15:01:11.234Z,101778.66
2019-05-13T15:04:02.876Z,101783.45
2019-05-13T15:07:08.267Z,101778.53
2019-05-13T15:10:13.836Z,101779.92
2019-05-13T15:13:19.067Z,101779.92
2019-05-13T15:16:24.519Z,101777.14
2019-05-13T15:19:31.741Z,101775.86
2019-05-13T15:22:37.418Z,101773.84
2019-05-13T15:25:42.917Z,101771.47
2019-05-13T15:28:48.370Z,101771.47
2019-05-13T15:31:54.057Z,101768.27
2019-05-13T15:34:59.309Z,101756.25
2019-05-13T15:38:04.612Z,101756.25
2019-05-13T15:41:15.293Z,101760.91
2019-05-13T15:44:17.418Z,101760.91
2019-05-13T15:47:26.371Z,101752.74
2019-05-13T15:50:31.857Z,101760.13
2019-05-13T15:53:37.611Z,101758.28
2019-05-13T15:56:43.032Z,101761.57
2019-05-13T15:59:48.416Z,101761.57
2019-05-13T16:02:54.632Z,101764.14
2019-05-13T16:06:01.675Z,101767.83
2019-05-13T16:09:08.054Z,101762.09
2019-05-13T16:12:13.659Z,101766.58
2019-05-13T16:15:21.724Z,101758.79
2019-05-13T16:18:27.086Z,101758.79
2019-05-13T16:21:32.864Z,101749.82
2019-05-13T16:24:38.598Z,101735.09
2019-05-13T16:27:44.525Z,101746.94
2019-05-13T16:30:51.602Z,101747.80
2019-05-13T16:33:57.205Z,101731.48
2019-05-13T16:37:04.693Z,101727.10
2019-05-13T16:40:11.838Z,101728.28
2019-05-13T16:43:17.264Z,101728.28
2019-05-13T16:46:23.042Z,101740.66
2019-05-13T16:49:28.911Z,101744.20
2019-05-13T16:52:34.325Z,101737.80
2019-05-13T16:55:41.544Z,101735.31
2019-05-13T16:58:46.762Z,101735.31
2019-05-13T17:01:52.618Z,101720.70
2019-05-13T17:04:58.119Z,101720.70
2019-05-13T17:08:03.569Z,101742.91
2019-05-13T17:11:09.000Z,101741.20
2019-05-13T17:14:14.390Z,101745.06
2019-05-13T17:17:19.678Z,101732.20
2019-05-13T17:20:25.031Z,101749.38
2019-05-13T17:23:30.349Z,101749.38
2019-05-13T17:26:35.923Z,101753.42
2019-05-13T17:29:41.457Z,101749.36
2019-05-13T17:32:47.077Z,101752.00
2019-05-13T17:35:52.961Z,101751.91
2019-05-13T17:38:58.375Z,101751.98
2019-05-13T17:42:03.886Z,101736.69
2019-05-13T17:45:11.328Z,101748.23
2019-05-13T17:48:28.530Z,101748.23
2019-05-13T17:51:24.386Z,101739.55
2019-05-13T17:54:31.813Z,101739.55
2019-05-13T17:57:36.905Z,101747.86
2019-05-13T18:00:42.509Z,101755.42
2019-05-13T18:03:48.023Z,101755.42
2019-05-13T18:06:53.649Z,101756.52
2019-05-13T18:10:01.367Z,101753.66
2019-05-13T18:13:06.081Z,101758.84
2019-05-13T18:16:12.546Z,101763.39
2019-05-13T18:19:19.026Z,101763.39
2019-05-13T18:22:24.729Z,101761.77
2019-05-13T18:25:31.717Z,101756.49
2019-05-13T18:28:37.300Z,101761.08
2019-05-13T18:31:42.569Z,101757.61
2019-05-13T18:34:48.112Z,101745.49
2019-05-13T18:37:53.446Z,101753.55
2019-05-13T18:40:58.739Z,101753.55
2019-05-13T18:44:04.495Z,101763.26
2019-05-13T18:47:11.995Z,101760.39
2019-05-13T18:50:17.286Z,101759.92
2019-05-13T18:53:22.808Z,101760.02
2019-05-13T18:56:28.099Z,101760.02
2019-05-13T18:59:33.464Z,101764.97
2019-05-13T19:02:41.320Z,101764.97
2019-05-13T19:05:45.778Z,101774.67
2019-05-13T19:08:52.795Z,101774.09
2019-05-13T19:11:58.157Z,101771.60
2019-05-13T19:15:04.723Z,101778.19
2019-05-13T19:18:12.219Z,101776.70
2019-05-13T19:21:17.811Z,101776.70
2019-05-13T19:24:23.550Z,101782.75
2019-05-13T19:27:28.931Z,101786.31
2019-05-13T19:30:34.256Z,101786.31
2019-05-13T19:33:41.458Z,101793.39
2019-05-13T19:36:47.225Z,101773.00
2019-05-13T19:39:52.816Z,101792.09
2019-05-13T19:42:58.463Z,101786.95
2019-05-13T19:46:04.140Z,101800.84
2019-05-13T19:49:12.095Z,101784.33
2019-05-13T19:52:17.592Z,101784.33
2019-05-13T19:55:23.588Z,101792.24
2019-05-13T19:58:28.983Z,101784.25
2019-05-13T20:01:34.864Z,101790.95
2019-05-13T20:04:41.471Z,101790.95
2019-05-13T20:07:47.997Z,101790.47
2019-05-13T20:10:53.845Z,101791.59
2019-05-13T20:14:01.344Z,101795.13
2019-05-13T20:17:06.330Z,101795.13
2019-05-13T20:20:14.062Z,101788.81
2019-05-13T20:23:21.604Z,101792.81
2019-05-13T20:26:27.881Z,101792.81
2019-05-13T20:29:34.726Z,101794.78
2019-05-13T20:32:41.096Z,101785.70
2019-05-13T20:35:47.883Z,101793.39
2019-05-13T20:38:54.543Z,101790.33
2019-05-13T20:42:01.630Z,101790.33
2019-05-13T20:45:11.616Z,101790.05
2019-05-13T20:48:18.294Z,101792.87
2019-05-13T20:51:24.236Z,101793.58
2019-05-13T20:54:31.564Z,101793.13
2019-05-13T20:57:37.962Z,101791.25
2019-05-13T21:00:47.671Z,101793.37
2019-05-13T21:03:56.880Z,101786.16
2019-05-13T21:07:02.944Z,101790.70
2019-05-13T21:10:12.098Z,101792.66
2019-05-13T21:13:18.233Z,101789.04
2019-05-13T21:16:23.731Z,101788.58
2019-05-13T21:19:38.726Z,101792.75
2019-05-13T21:22:37.661Z,101792.75
2019-05-13T21:25:44.169Z,101787.28
2019-05-13T21:28:52.042Z,101789.02
2019-05-13T21:31:56.868Z,101789.27
2019-05-13T21:35:05.998Z,101789.27
2019-05-13T21:38:13.100Z,101787.94
2019-05-13T21:41:18.439Z,101780.42
2019-05-13T21:44:24.123Z,101771.27
2019-05-13T21:47:31.214Z,101771.27
2019-05-13T21:50:41.416Z,101776.98
2019-05-13T21:53:51.926Z,101786.35
2019-05-13T21:57:02.209Z,101779.30
2019-05-13T22:00:11.179Z,101779.30
2019-05-13T22:03:18.123Z,101775.03
2019-05-13T22:06:23.488Z,101782.47
2019-05-13T22:09:31.180Z,101782.47
2019-05-13T22:12:36.109Z,101783.02
2019-05-13T22:15:41.713Z,101783.20
2019-05-13T22:18:47.369Z,101783.20
2019-05-13T22:21:52.659Z,101786.19
2019-05-13T22:24:58.111Z,101778.95
2019-05-13T22:28:03.408Z,101778.95
2019-05-13T22:31:09.061Z,101778.66
2019-05-13T22:34:14.394Z,101778.34
2019-05-13T22:37:19.630Z,101780.45
2019-05-13T22:40:25.133Z,101780.98
2019-05-13T22:43:32.009Z,101780.98
2019-05-13T22:46:37.716Z,101768.14
2019-05-13T22:49:43.770Z,101768.14
2019-05-13T22:52:49.260Z,101770.05
2019-05-13T22:55:54.519Z,101762.83
2019-05-13T22:59:02.032Z,101767.17
2019-05-13T23:02:06.980Z,101753.61
2019-05-13T23:05:12.668Z,101753.61
2019-05-13T23:08:18.020Z,101758.28
2019-05-13T23:11:24.429Z,101764.88
2019-05-13T23:14:30.005Z,101764.88
2019-05-13T23:17:35.660Z,101759.88
2019-05-13T23:20:41.163Z,101759.88
2019-05-13T23:23:47.862Z,101758.50
2019-05-13T23:26:53.272Z,101759.06
2019-05-13T23:29:58.535Z,101759.58
2019-05-13T23:33:04.004Z,101759.58
2019-05-13T23:36:11.789Z,101749.44
2019-05-13T23:39:16.865Z,101749.65
2019-05-13T23:42:22.155Z,101749.65
2019-05-13T23:45:27.395Z,101743.97
2019-05-13T23:48:32.791Z,101744.36
2019-05-13T23:51:38.188Z,101729.21
2019-05-13T23:54:43.468Z,101726.84
2019-05-13T23:57:48.836Z,101727.05
